createdAt,value
2022-08-09T00:01:01.575Z,65.46
2022-08-09T00:03:01.708Z,64.75
2022-08-09T00:06:19.696Z,65.16
2022-08-09T00:08:09.680Z,65.16
2022-08-09T00:10:07.191Z,66.27
2022-08-09T00:12:07.300Z,66.06
2022-08-09T00:14:07.410Z,66.16
2022-08-09T00:16:07.508Z,65.59
2022-08-09T00:18:11.651Z,65.99
2022-08-09T00:20:07.763Z,65.79
2022-08-09T00:22:07.830Z,66.39
2022-08-09T00:24:07.999Z,67.00
2022-08-09T00:26:08.046Z,66.80
2022-08-09T00:28:08.130Z,66.60
2022-08-09T00:30:17.986Z,67.20
2022-08-09T00:32:12.697Z,66.73
2022-08-09T00:34:08.527Z,66.73
2022-08-09T00:36:08.612Z,66.42
2022-08-09T00:38:08.839Z,66.83
2022-08-09T00:40:16.868Z,67.43
2022-08-09T00:44:11.784Z,66.93
2022-08-09T00:44:24.500Z,67.84
2022-08-09T00:46:10.185Z,67.13
2022-08-09T00:48:09.293Z,67.03
2022-08-09T00:50:14.286Z,66.73
2022-08-09T00:52:17.475Z,67.54
2022-08-09T00:54:10.579Z,67.13
2022-08-09T00:56:10.125Z,66.93
2022-08-09T00:58:09.774Z,66.42
2022-08-09T01:00:21.310Z,66.22
2022-08-09T01:02:11.095Z,66.33
2022-08-09T01:04:10.173Z,65.92
2022-08-09T01:06:17.417Z,65.39
2022-08-09T01:08:11.377Z,66.39
2022-08-09T01:10:10.553Z,65.59
2022-08-09T01:12:12.814Z,65.49
2022-08-09T01:14:11.800Z,65.59
2022-08-09T01:16:10.906Z,65.39
2022-08-09T01:18:14.301Z,66.09
2022-08-09T01:20:11.103Z,65.99
2022-08-09T01:22:12.370Z,66.09
2022-08-09T01:24:12.347Z,66.63
2022-08-09T01:26:11.475Z,67.54
2022-08-09T01:28:11.590Z,68.04
2022-08-09T01:30:33.754Z,68.27
2022-08-09T01:32:32.698Z,68.57
2022-08-09T01:34:12.878Z,68.48
2022-08-09T01:36:12.029Z,68.68
2022-08-09T01:38:15.070Z,68.17
2022-08-09T01:40:12.233Z,68.57
2022-08-09T01:42:13.330Z,68.17
2022-08-09T01:44:12.477Z,67.36
2022-08-09T01:46:12.563Z,67.16
2022-08-09T01:48:15.535Z,66.76
2022-08-09T01:50:12.838Z,67.13
2022-08-09T01:52:14.542Z,67.43
2022-08-09T01:54:13.014Z,66.42
2022-08-09T01:56:13.086Z,66.02
2022-08-09T01:58:13.193Z,66.93
2022-08-09T02:00:34.554Z,67.87
2022-08-09T02:02:14.438Z,68.37
2022-08-09T02:04:13.561Z,67.87
2022-08-09T02:06:13.658Z,68.30
2022-08-09T02:08:40.559Z,68.51
2022-08-09T02:10:14.953Z,68.91
2022-08-09T02:12:18.168Z,68.51
2022-08-09T02:14:25.053Z,68.10
2022-08-09T02:16:15.217Z,68.71
2022-08-09T02:18:14.359Z,69.01
2022-08-09T02:20:15.903Z,69.31
2022-08-09T02:22:15.593Z,69.85
2022-08-09T02:24:25.732Z,69.24
2022-08-09T02:26:24.914Z,69.55
2022-08-09T02:28:17.905Z,71.06
2022-08-09T02:30:15.571Z,70.26
2022-08-09T02:32:15.218Z,70.29
2022-08-09T02:34:40.891Z,70.49
2022-08-09T02:36:16.414Z,71.10
2022-08-09T02:38:22.089Z,72.11
2022-08-09T02:40:18.564Z,72.04
2022-08-09T02:42:17.234Z,71.94
2022-08-09T02:44:29.026Z,71.73
2022-08-09T02:46:16.998Z,71.53
2022-08-09T02:48:29.787Z,71.64
2022-08-09T02:50:17.268Z,71.53
2022-08-09T02:52:16.379Z,71.44
2022-08-09T02:54:16.532Z,72.04
2022-08-09T02:56:16.612Z,71.94
2022-08-09T02:58:36.111Z,71.94
2022-08-09T03:00:24.802Z,72.04
2022-08-09T03:02:17.997Z,71.84
2022-08-09T03:04:19.833Z,72.44
2022-08-09T03:06:17.280Z,73.25
2022-08-09T03:08:17.289Z,72.34
2022-08-09T03:10:17.422Z,72.48
2022-08-09T03:12:17.473Z,72.28
2022-08-09T03:14:17.594Z,72.78
2022-08-09T03:16:17.664Z,73.79
2022-08-09T03:18:19.115Z,73.28
2022-08-09T03:20:18.943Z,73.90
2022-08-09T03:22:25.188Z,73.19
2022-08-09T03:24:42.428Z,73.19
2022-08-09T03:26:19.308Z,73.12
2022-08-09T03:28:18.407Z,73.12
2022-08-09T03:30:33.179Z,73.02
2022-08-09T03:32:19.605Z,73.63
2022-08-09T03:34:18.770Z,74.84
2022-08-09T03:37:56.026Z,73.43
2022-08-09T03:39:37.540Z,72.78
2022-08-09T03:41:44.952Z,73.49
2022-08-09T03:43:36.701Z,74.60
2022-08-09T03:46:04.404Z,74.03
2022-08-09T03:47:42.029Z,74.03
2022-08-09T03:49:37.070Z,74.94
2022-08-09T03:51:55.695Z,74.98
2022-08-09T03:53:37.791Z,75.18
2022-08-09T03:55:40.912Z,75.31
2022-08-09T03:57:53.401Z,75.42
2022-08-09T03:59:53.693Z,75.21
2022-08-09T04:01:40.989Z,75.01
2022-08-09T04:04:01.390Z,75.42
2022-08-09T04:05:40.420Z,75.21
2022-08-09T04:07:53.050Z,75.31
2022-08-09T04:09:47.429Z,74.81
2022-08-09T04:11:38.509Z,75.01
2022-08-09T04:14:36.751Z,75.82
2022-08-09T04:16:55.185Z,76.23
2022-08-09T04:18:55.297Z,76.32
2022-08-09T04:20:55.471Z,76.32
2022-08-09T04:22:55.598Z,76.32
2022-08-09T04:24:55.690Z,76.53
2022-08-09T04:26:56.014Z,76.53
2022-08-09T04:28:59.717Z,77.28
2022-08-09T04:30:57.182Z,77.07
2022-08-09T04:32:56.348Z,76.77
2022-08-09T04:34:57.480Z,77.14
2022-08-09T04:36:56.611Z,77.44
2022-08-09T04:38:56.710Z,76.43
2022-08-09T04:40:57.238Z,76.53
2022-08-09T04:42:57.097Z,76.93
2022-08-09T04:44:57.186Z,77.24
2022-08-09T04:47:04.619Z,77.03
2022-08-09T04:48:58.582Z,76.63
2022-08-09T04:50:57.751Z,76.83
2022-08-09T04:52:57.731Z,76.63
2022-08-09T04:54:57.874Z,77.75
2022-08-09T04:56:58.006Z,76.83
2022-08-09T04:58:58.114Z,77.24
2022-08-09T05:00:58.317Z,77.95
2022-08-09T05:02:58.519Z,77.95
2022-08-09T05:05:09.702Z,77.64
2022-08-09T05:06:59.721Z,77.54
2022-08-09T05:09:00.031Z,77.54
2022-08-09T05:10:59.009Z,77.61
2022-08-09T05:12:59.164Z,78.01
2022-08-09T05:14:59.270Z,77.40
2022-08-09T05:16:59.744Z,77.71
2022-08-09T05:19:00.506Z,77.81
2022-08-09T05:20:59.649Z,77.81
2022-08-09T05:23:53.935Z,78.01
2022-08-09T05:25:02.529Z,77.61
2022-08-09T05:27:00.068Z,78.01
2022-08-09T05:29:00.230Z,78.92
2022-08-09T05:31:00.356Z,77.97
2022-08-09T05:33:01.967Z,77.67
2022-08-09T05:35:00.648Z,77.87
2022-08-09T05:37:01.779Z,78.38
2022-08-09T05:39:00.941Z,78.48
2022-08-09T05:41:01.079Z,78.58
2022-08-09T05:43:01.291Z,77.47
2022-08-09T05:45:01.374Z,77.13
2022-08-09T05:47:01.485Z,76.72
2022-08-09T05:49:13.633Z,77.23
2022-08-09T05:51:42.289Z,77.33
2022-08-09T05:53:02.918Z,76.93
2022-08-09T05:55:03.265Z,77.43
2022-08-09T05:57:03.189Z,77.09
2022-08-09T05:59:02.296Z,75.17
2022-08-09T06:01:04.459Z,74.66
2022-08-09T06:03:02.687Z,73.32
2022-08-09T06:05:02.699Z,74.93
2022-08-09T06:07:02.845Z,73.62
2022-08-09T06:09:02.998Z,73.28
2022-08-09T06:11:17.282Z,73.99
2022-08-09T06:13:12.102Z,74.69
2022-08-09T06:15:09.507Z,73.85
2022-08-09T06:17:09.422Z,73.05
2022-08-09T06:19:04.716Z,72.64
2022-08-09T06:21:04.343Z,73.85
2022-08-09T06:23:03.925Z,74.12
2022-08-09T06:25:04.081Z,71.94
2022-08-09T06:27:04.202Z,67.04
2022-08-09T06:29:05.167Z,63.90
2022-08-09T06:31:04.469Z,59.11
2022-08-09T06:33:30.614Z,56.62
2022-08-09T06:35:06.327Z,56.16
2022-08-09T06:37:04.887Z,55.58
2022-08-09T06:39:09.268Z,54.34
2022-08-09T06:41:12.451Z,54.08
2022-08-09T06:43:07.646Z,53.24
2022-08-09T06:46:06.903Z,52.04
2022-08-09T06:47:06.402Z,51.72
2022-08-09T06:49:05.589Z,52.09
2022-08-09T06:51:05.644Z,50.08
2022-08-09T06:53:05.846Z,49.56
2022-08-09T06:55:10.215Z,49.66
2022-08-09T06:57:08.265Z,49.26
2022-08-09T07:00:54.739Z,49.76
2022-08-09T07:01:08.013Z,50.73
2022-08-09T07:03:06.423Z,48.50
2022-08-09T07:05:06.530Z,48.18
2022-08-09T07:07:06.638Z,47.66
2022-08-09T07:09:07.724Z,48.00
2022-08-09T07:11:07.849Z,46.89
2022-08-09T07:13:28.392Z,49.05
2022-08-09T07:15:53.968Z,48.43
2022-08-09T07:17:08.361Z,44.84
2022-08-09T07:19:07.828Z,47.91
2022-08-09T07:21:07.643Z,46.40
2022-08-09T07:23:19.230Z,46.11
2022-08-09T07:25:09.663Z,46.11
2022-08-09T07:27:10.839Z,47.29
2022-08-09T07:29:13.170Z,51.92
2022-08-09T07:31:08.034Z,46.75
2022-08-09T07:33:12.237Z,46.85
2022-08-09T07:35:11.543Z,45.47
2022-08-09T07:37:15.644Z,45.37
2022-08-09T07:39:11.589Z,49.05
2022-08-09T07:41:11.718Z,48.53
2022-08-09T07:43:16.627Z,44.78
2022-08-09T07:45:22.604Z,45.35
2022-08-09T07:47:10.020Z,45.52
2022-08-09T07:49:09.118Z,45.10
2022-08-09T07:52:05.713Z,46.22
2022-08-09T07:53:10.345Z,42.30
2022-08-09T07:55:11.500Z,44.65
2022-08-09T07:57:11.796Z,42.26
2022-08-09T07:59:15.715Z,40.86
2022-08-09T08:01:11.087Z,45.29
2022-08-09T08:03:09.939Z,41.31
2022-08-09T08:05:17.908Z,39.90
2022-08-09T08:08:06.258Z,43.55
2022-08-09T08:09:18.826Z,41.96
2022-08-09T08:12:09.130Z,40.17
2022-08-09T08:13:11.690Z,39.78
2022-08-09T08:15:11.794Z,39.50
2022-08-09T08:17:12.147Z,43.04
2022-08-09T08:19:11.916Z,39.35
2022-08-09T08:21:11.033Z,40.92
2022-08-09T08:23:16.919Z,40.80
2022-08-09T08:25:13.673Z,40.39
2022-08-09T08:27:16.589Z,39.59
2022-08-09T08:29:12.495Z,38.60
2022-08-09T08:31:14.600Z,39.00
2022-08-09T08:33:23.218Z,36.45
2022-08-09T08:35:13.034Z,39.64
2022-08-09T08:37:15.602Z,36.38
2022-08-09T08:39:12.998Z,37.24
2022-08-09T08:41:13.367Z,35.75
2022-08-09T08:43:13.277Z,36.65
2022-08-09T08:45:13.818Z,37.55
2022-08-09T08:47:13.444Z,34.78
2022-08-09T08:49:12.991Z,36.24
2022-08-09T08:51:13.897Z,36.13
2022-08-09T08:53:15.988Z,36.39
2022-08-09T08:55:15.306Z,37.04
2022-08-09T08:57:14.206Z,34.27
2022-08-09T08:59:19.947Z,34.99
2022-08-09T09:01:20.723Z,33.06
2022-08-09T09:03:22.595Z,34.79
2022-08-09T09:05:14.688Z,33.80
2022-08-09T09:07:13.795Z,31.93
2022-08-09T09:09:21.006Z,32.50
2022-08-09T09:11:17.588Z,32.21
2022-08-09T09:13:15.113Z,32.60
2022-08-09T09:15:28.545Z,30.61
2022-08-09T09:17:16.366Z,31.30
2022-08-09T09:19:40.707Z,33.17
2022-08-09T09:21:15.671Z,32.10
2022-08-09T09:23:14.807Z,31.13
2022-08-09T09:26:02.221Z,33.56
2022-08-09T09:28:04.331Z,33.07
2022-08-09T09:29:17.173Z,30.64
2022-08-09T09:31:17.398Z,34.05
2022-08-09T09:33:17.906Z,30.33
2022-08-09T09:35:15.752Z,29.94
2022-08-09T09:37:15.586Z,29.75
2022-08-09T09:39:15.732Z,31.47
2022-08-09T09:41:15.799Z,31.34
2022-08-09T09:43:15.899Z,29.95
2022-08-09T09:45:25.781Z,28.98
2022-08-09T09:47:17.170Z,27.82
2022-08-09T09:49:16.269Z,27.84
2022-08-09T09:51:18.687Z,28.29
2022-08-09T09:53:17.558Z,29.96
2022-08-09T09:55:32.226Z,29.85
2022-08-09T09:58:04.183Z,31.21
2022-08-09T09:59:18.065Z,30.09
2022-08-09T10:01:31.490Z,29.98
2022-08-09T10:03:18.241Z,29.08
2022-08-09T10:05:26.781Z,29.47
2022-08-09T10:07:18.458Z,27.53
2022-08-09T10:09:22.402Z,27.91
2022-08-09T10:11:59.282Z,28.69
2022-08-09T10:13:23.198Z,29.47
2022-08-09T10:15:50.928Z,27.98
2022-08-09T10:17:51.254Z,28.77
2022-08-09T10:19:19.192Z,27.79
2022-08-09T10:21:18.298Z,28.39
2022-08-09T10:23:19.884Z,28.76
2022-08-09T10:25:20.881Z,28.86
2022-08-09T10:27:24.977Z,29.15
2022-08-09T10:29:35.993Z,29.05
2022-08-09T10:34:04.294Z,28.07
2022-08-09T10:35:20.122Z,26.31
2022-08-09T10:37:19.230Z,27.37
2022-08-09T10:39:19.847Z,27.66
2022-08-09T10:41:20.417Z,27.55
2022-08-09T10:43:19.891Z,26.79
2022-08-09T10:45:19.750Z,27.46
2022-08-09T10:48:13.411Z,26.81
2022-08-09T10:49:20.970Z,26.04
2022-08-09T10:51:20.036Z,25.96
2022-08-09T10:53:23.064Z,28.25
2022-08-09T10:55:20.441Z,29.30
2022-08-09T10:57:20.490Z,28.02
2022-08-09T10:59:20.750Z,28.00
2022-08-09T11:03:15.673Z,27.01
2022-08-09T11:03:50.941Z,27.79
2022-08-09T11:05:24.801Z,27.68
2022-08-09T11:07:22.133Z,27.79
2022-08-09T11:09:21.344Z,27.68
2022-08-09T11:11:21.344Z,27.20
2022-08-09T11:13:49.012Z,25.74
2022-08-09T11:15:23.892Z,27.22
2022-08-09T11:17:21.721Z,28.02
2022-08-09T11:19:21.919Z,27.13
2022-08-09T11:21:23.024Z,26.65
2022-08-09T11:23:23.799Z,27.24
2022-08-09T11:25:26.000Z,26.54
2022-08-09T11:28:02.527Z,25.48
2022-08-09T11:30:06.504Z,27.01
2022-08-09T11:31:33.830Z,26.27
2022-08-09T11:33:24.010Z,25.88
2022-08-09T11:35:26.720Z,25.68
2022-08-09T11:37:24.234Z,26.65
2022-08-09T11:39:23.504Z,26.85
2022-08-09T11:41:23.543Z,27.42
2022-08-09T11:43:24.662Z,26.16
2022-08-09T11:45:37.983Z,26.16
2022-08-09T11:47:25.135Z,26.63
2022-08-09T11:49:28.297Z,26.07
2022-08-09T11:53:00.624Z,26.67
2022-08-09T11:53:59.066Z,28.11
2022-08-09T11:55:51.602Z,27.61
2022-08-09T11:57:46.969Z,27.12
2022-08-09T11:59:30.170Z,27.48
2022-08-09T12:01:37.554Z,27.70
2022-08-09T12:03:55.121Z,28.45
2022-08-09T12:05:26.286Z,27.17
2022-08-09T12:07:25.275Z,27.76
2022-08-09T12:09:25.389Z,26.67
2022-08-09T12:11:25.492Z,25.98
2022-08-09T12:14:07.779Z,25.98
2022-08-09T12:15:49.548Z,27.53
2022-08-09T12:17:33.984Z,27.93
2022-08-09T12:19:27.054Z,27.06
2022-08-09T12:21:28.508Z,27.87
2022-08-09T12:23:58.696Z,28.05
2022-08-09T12:25:36.287Z,28.53
2022-08-09T12:28:58.573Z,28.23
2022-08-09T12:29:33.363Z,28.14
2022-08-09T12:31:58.805Z,27.66
2022-08-09T12:33:50.783Z,26.97
2022-08-09T12:35:27.917Z,26.98
2022-08-09T12:37:29.140Z,26.70
2022-08-09T12:39:27.179Z,26.79
2022-08-09T12:41:27.301Z,27.18
2022-08-09T12:44:06.555Z,26.79
2022-08-09T12:45:33.387Z,26.79
2022-08-09T12:47:28.775Z,26.31
2022-08-09T12:49:28.843Z,27.59
2022-08-09T12:51:30.409Z,27.89
2022-08-09T12:53:36.739Z,28.28
2022-08-09T12:56:16.241Z,27.90
2022-08-09T12:57:29.414Z,28.59
2022-08-09T12:59:57.507Z,27.82
2022-08-09T13:01:29.605Z,27.55
2022-08-09T13:03:54.067Z,28.75
2022-08-09T13:05:50.710Z,28.16
2022-08-09T13:07:50.136Z,29.33
2022-08-09T13:09:30.339Z,30.18
2022-08-09T13:11:29.223Z,27.94
2022-08-09T13:14:01.036Z,28.02
2022-08-09T13:15:30.385Z,27.14
2022-08-09T13:18:02.819Z,26.95
2022-08-09T13:20:07.248Z,28.74
2022-08-09T13:22:38.385Z,28.28
2022-08-09T13:24:16.935Z,28.89
2022-08-09T13:25:30.972Z,30.05
2022-08-09T13:27:30.102Z,30.03
2022-08-09T13:30:02.599Z,29.83
2022-08-09T13:32:16.054Z,29.43
2022-08-09T13:33:53.059Z,30.78
2022-08-09T13:35:34.683Z,28.83
2022-08-09T13:37:51.738Z,28.45
2022-08-09T13:41:45.824Z,29.24
2022-08-09T13:41:51.234Z,29.36
2022-08-09T13:43:35.739Z,30.27
2022-08-09T13:46:42.853Z,30.41
2022-08-09T13:47:48.933Z,31.81
2022-08-09T13:49:37.760Z,32.90
2022-08-09T13:51:32.599Z,33.61
2022-08-09T13:53:41.463Z,33.33
2022-08-09T13:55:32.705Z,33.62
2022-08-09T13:57:35.486Z,31.48
2022-08-09T13:59:41.737Z,33.65
2022-08-09T14:01:56.746Z,33.77
2022-08-09T14:04:01.907Z,33.97
2022-08-09T14:05:58.390Z,34.28
2022-08-09T14:07:42.054Z,33.29
2022-08-09T14:09:34.869Z,33.18
2022-08-09T14:11:32.711Z,33.74
2022-08-09T14:14:15.153Z,32.63
2022-08-09T14:16:10.526Z,30.07
2022-08-09T14:18:06.470Z,32.03
2022-08-09T14:19:34.385Z,30.82
2022-08-09T14:21:33.438Z,29.25
2022-08-09T14:23:46.864Z,30.22
2022-08-09T14:25:43.095Z,30.10
2022-08-09T14:27:56.991Z,30.71
2022-08-09T14:30:34.051Z,30.51
2022-08-09T14:31:49.883Z,29.22
2022-08-09T14:33:38.083Z,30.69
2022-08-09T14:35:52.137Z,30.87
2022-08-09T14:37:41.185Z,30.29
2022-08-09T14:39:45.598Z,29.24
2022-08-09T14:41:41.642Z,29.44
2022-08-09T14:43:47.607Z,30.83
2022-08-09T14:46:55.435Z,30.27
2022-08-09T14:47:39.950Z,30.50
2022-08-09T14:49:40.179Z,31.79
2022-08-09T14:51:42.129Z,32.01
2022-08-09T14:53:39.745Z,32.59
2022-08-09T14:55:35.410Z,33.79
2022-08-09T14:57:43.661Z,33.39
2022-08-09T14:59:38.634Z,32.87
2022-08-09T15:01:35.909Z,31.20
2022-08-09T15:03:36.048Z,31.19
2022-08-09T15:05:36.461Z,28.93
2022-08-09T15:07:36.164Z,30.12
2022-08-09T15:10:04.539Z,30.90
2022-08-09T15:11:37.489Z,32.54
2022-08-09T15:13:56.042Z,31.74
2022-08-09T15:15:38.961Z,29.88
2022-08-09T15:17:41.490Z,31.93
2022-08-09T15:19:54.382Z,29.48
2022-08-09T15:22:00.768Z,30.54
2022-08-09T15:24:01.647Z,30.83
2022-08-09T15:25:40.867Z,29.95
2022-08-09T15:27:47.795Z,29.77
2022-08-09T15:30:57.215Z,30.16
2022-08-09T15:31:41.337Z,30.26
2022-08-09T15:34:17.226Z,29.28
2022-08-09T15:35:44.114Z,29.38
2022-08-09T15:37:57.340Z,29.18
2022-08-09T15:39:50.004Z,30.27
2022-08-09T15:41:39.307Z,30.37
2022-08-09T15:43:38.413Z,30.08
2022-08-09T15:46:08.192Z,29.69
2022-08-09T15:47:51.610Z,29.21
2022-08-09T15:49:39.744Z,29.50
2022-08-09T15:52:03.624Z,30.10
2022-08-09T15:54:05.384Z,29.70
2022-08-09T15:55:59.042Z,30.39
2022-08-09T15:57:44.463Z,30.19
2022-08-09T15:59:42.874Z,30.88
2022-08-09T16:01:40.404Z,30.58
2022-08-09T16:03:41.767Z,29.50
2022-08-09T16:05:53.152Z,29.13
2022-08-09T16:07:45.954Z,30.10
2022-08-09T16:10:04.025Z,30.01
2022-08-09T16:11:45.552Z,30.98
2022-08-09T16:14:02.733Z,31.17
2022-08-09T16:16:11.854Z,31.57
2022-08-09T16:17:44.363Z,28.63
2022-08-09T16:19:49.389Z,29.91
2022-08-09T16:21:41.597Z,29.82
2022-08-09T16:23:44.423Z,31.09
2022-08-09T16:25:41.875Z,30.30
2022-08-09T16:27:42.014Z,31.29
2022-08-09T16:29:50.045Z,30.71
2022-08-09T16:32:19.086Z,30.81
2022-08-09T16:33:42.386Z,30.02
2022-08-09T16:35:55.717Z,29.73
2022-08-09T16:37:54.729Z,30.91
2022-08-09T16:39:54.756Z,31.10
2022-08-09T16:42:03.610Z,31.50
2022-08-09T16:43:43.075Z,30.93
2022-08-09T16:45:44.045Z,30.84
2022-08-09T16:48:40.829Z,31.15
2022-08-09T16:50:30.331Z,31.95
2022-08-09T16:51:43.647Z,34.13
2022-08-09T16:54:09.124Z,35.41
2022-08-09T16:55:59.749Z,34.34
2022-08-09T16:58:09.240Z,35.64
2022-08-09T16:59:57.568Z,37.12
2022-08-09T17:01:51.185Z,36.33
2022-08-09T17:03:44.322Z,34.87
2022-08-09T17:06:08.093Z,36.36
2022-08-09T17:08:46.351Z,36.96
2022-08-09T17:09:47.219Z,37.35
2022-08-09T17:11:43.912Z,37.17
2022-08-09T17:13:45.018Z,37.57
2022-08-09T17:15:59.354Z,38.18
2022-08-09T17:17:50.338Z,39.26
2022-08-09T17:20:04.986Z,40.15
2022-08-09T17:21:46.620Z,39.56
2022-08-09T17:24:27.290Z,39.18
2022-08-09T17:25:45.854Z,39.09
2022-08-09T17:27:49.354Z,40.37
2022-08-09T17:29:46.133Z,41.36
2022-08-09T17:31:48.855Z,44.14
2022-08-09T17:33:45.431Z,44.93
2022-08-09T17:35:47.182Z,45.05
2022-08-09T17:38:02.317Z,44.06
2022-08-09T17:39:52.233Z,44.18
2022-08-09T17:41:46.995Z,45.07
2022-08-09T17:43:50.680Z,45.09
2022-08-09T17:46:04.356Z,46.11
2022-08-09T17:47:49.283Z,46.40
2022-08-09T17:49:50.579Z,47.81
2022-08-09T17:51:47.649Z,48.72
2022-08-09T17:53:51.679Z,48.23
2022-08-09T17:55:48.826Z,49.24
2022-08-09T17:58:03.330Z,48.65
2022-08-09T17:59:48.179Z,49.24
2022-08-09T18:02:07.704Z,48.27
2022-08-09T18:03:48.480Z,47.78
2022-08-09T18:05:53.089Z,47.78
2022-08-09T18:07:48.928Z,48.50
2022-08-09T18:10:04.500Z,48.50
2022-08-09T18:12:10.199Z,46.31
2022-08-09T18:13:57.210Z,47.11
2022-08-09T18:16:05.256Z,47.11
2022-08-09T18:18:02.729Z,46.22
2022-08-09T18:20:55.366Z,46.91
2022-08-09T18:21:50.213Z,46.31
2022-08-09T18:24:10.375Z,46.42
2022-08-09T18:25:53.377Z,46.42
2022-08-09T18:28:05.275Z,46.51
2022-08-09T18:30:40.621Z,46.12
2022-08-09T18:31:55.187Z,45.72
2022-08-09T18:33:53.091Z,46.61
2022-08-09T18:35:58.955Z,47.01
2022-08-09T18:37:54.980Z,47.92
2022-08-09T18:39:50.007Z,46.73
2022-08-09T18:41:52.252Z,47.33
2022-08-09T18:43:53.400Z,45.27
2022-08-09T18:46:49.688Z,48.44
2022-08-09T18:47:51.409Z,47.65
2022-08-09T18:49:50.552Z,45.37
2022-08-09T18:51:55.563Z,44.37
2022-08-09T18:53:59.780Z,46.95
2022-08-09T18:55:56.374Z,45.96
2022-08-09T18:57:52.125Z,47.08
2022-08-09T18:59:58.859Z,48.17
2022-08-09T19:01:52.462Z,47.97
2022-08-09T19:04:01.458Z,47.38
2022-08-09T19:06:04.169Z,48.69
2022-08-09T19:08:04.515Z,44.92
2022-08-09T19:10:14.460Z,45.90
2022-08-09T19:11:53.038Z,45.31
2022-08-09T19:13:52.151Z,44.22
2022-08-09T19:15:52.246Z,44.71
2022-08-09T19:17:56.639Z,45.81
2022-08-09T19:20:00.654Z,46.31
2022-08-09T19:22:04.901Z,47.00
2022-08-09T19:24:33.280Z,46.13
2022-08-09T19:26:02.114Z,45.63
2022-08-09T19:27:53.835Z,45.03
2022-08-09T19:30:23.219Z,46.53
2022-08-09T19:31:54.124Z,48.71
2022-08-09T19:33:54.289Z,46.13
2022-08-09T19:35:56.899Z,44.85
2022-08-09T19:37:57.489Z,45.75
2022-08-09T19:40:04.796Z,47.34
2022-08-09T19:41:54.758Z,45.65
2022-08-09T19:44:00.572Z,45.26
2022-08-09T19:45:57.857Z,45.15
2022-08-09T19:47:54.092Z,45.15
2022-08-09T19:50:05.369Z,45.45
2022-08-09T19:51:56.170Z,45.65
2022-08-09T19:53:54.826Z,45.26
2022-08-09T19:56:05.898Z,44.38
2022-08-09T19:57:55.722Z,44.96
2022-08-09T20:00:05.787Z,45.55
2022-08-09T20:02:05.116Z,44.76
2022-08-09T20:04:18.308Z,44.26
2022-08-09T20:05:56.285Z,44.36
2022-08-09T20:08:00.140Z,44.76
2022-08-09T20:09:56.388Z,44.76
2022-08-09T20:11:55.622Z,44.66
2022-08-09T20:13:56.642Z,44.88
2022-08-09T20:16:37.608Z,44.58
2022-08-09T20:17:56.971Z,44.68
2022-08-09T20:19:58.488Z,45.18
2022-08-09T20:21:59.855Z,45.08
2022-08-09T20:23:56.521Z,44.88
2022-08-09T20:25:56.346Z,45.18
2022-08-09T20:27:56.501Z,45.18
2022-08-09T20:29:56.551Z,45.18
2022-08-09T20:32:30.922Z,45.57
2022-08-09T20:33:58.505Z,45.50
2022-08-09T20:35:56.818Z,45.60
2022-08-09T20:38:19.748Z,45.79
2022-08-09T20:40:17.741Z,45.90
2022-08-09T20:41:58.124Z,45.70
2022-08-09T20:43:58.526Z,45.79
2022-08-09T20:46:01.813Z,45.60
2022-08-09T20:47:58.535Z,45.79
2022-08-09T20:49:57.640Z,45.50
2022-08-09T20:51:57.716Z,45.72
2022-08-09T20:53:57.895Z,45.92
2022-08-09T20:56:02.293Z,45.82
2022-08-09T20:58:08.499Z,45.82
2022-08-09T21:00:20.475Z,45.82
2022-08-09T21:01:59.505Z,45.92
2022-08-09T21:05:48.942Z,45.92
2022-08-09T21:06:00.180Z,46.12
2022-08-09T21:08:01.580Z,45.72
2022-08-09T21:09:58.977Z,46.12
2022-08-09T21:14:00.547Z,46.31
2022-08-09T21:16:00.061Z,46.54
2022-08-09T21:18:23.635Z,46.34
2022-08-09T21:20:19.480Z,46.44
2022-08-09T21:22:00.547Z,46.64
2022-08-09T21:24:02.144Z,46.84
2022-08-09T21:26:00.283Z,46.84
2022-08-09T21:27:59.843Z,46.94
2022-08-09T21:29:59.971Z,46.94
2022-08-09T21:32:00.197Z,47.14
2022-08-09T21:34:00.167Z,47.16
2022-08-09T21:36:01.331Z,47.36
2022-08-09T21:38:00.824Z,47.45
2022-08-09T21:40:00.709Z,47.56
2022-08-09T21:42:06.705Z,47.56
2022-08-09T21:44:01.745Z,47.75
2022-08-09T21:46:00.834Z,47.86
2022-08-09T21:48:00.967Z,47.86
2022-08-09T21:50:01.137Z,48.05
2022-08-09T21:52:01.153Z,47.96
2022-08-09T21:54:01.357Z,48.16
2022-08-09T21:56:01.358Z,47.96
2022-08-09T21:58:01.956Z,48.05
2022-08-09T22:00:01.842Z,48.38
2022-08-09T22:02:01.941Z,48.68
2022-08-09T22:04:01.862Z,48.58
2022-08-09T22:06:01.971Z,48.78
2022-08-09T22:08:02.198Z,48.78
2022-08-09T22:10:02.386Z,48.97
2022-08-09T22:12:18.165Z,48.97
2022-08-09T22:14:03.402Z,48.97
2022-08-09T22:16:03.521Z,49.08
2022-08-09T22:18:02.647Z,49.08
2022-08-09T22:20:02.692Z,48.97
2022-08-09T22:22:02.826Z,48.97
2022-08-09T22:24:02.939Z,48.78
2022-08-09T22:26:05.867Z,48.78
2022-08-09T22:28:06.694Z,48.97
2022-08-09T22:30:03.202Z,48.88
2022-08-09T22:32:03.320Z,49.27
2022-08-09T22:34:03.449Z,49.08
2022-08-09T22:36:04.518Z,48.88
2022-08-09T22:38:07.644Z,49.27
2022-08-09T22:40:03.886Z,49.40
2022-08-09T22:42:06.086Z,49.60
2022-08-09T22:44:05.010Z,49.60
2022-08-09T22:48:16.515Z,49.50
2022-08-09T22:48:19.896Z,49.50
2022-08-09T22:50:05.356Z,49.80
2022-08-09T22:52:04.465Z,49.80
2022-08-09T22:54:04.550Z,49.80
2022-08-09T22:56:31.534Z,49.90
2022-08-09T22:58:05.867Z,49.90
2022-08-09T23:00:04.986Z,49.80
2022-08-09T23:02:05.112Z,49.80
2022-08-09T23:04:07.090Z,49.70
2022-08-09T23:06:05.399Z,50.20
2022-08-09T23:08:21.884Z,49.90
2022-08-09T23:10:06.728Z,50.20
2022-08-09T23:12:05.813Z,49.90
2022-08-09T23:14:10.069Z,50.20
2022-08-09T23:16:06.896Z,49.80
2022-08-09T23:18:05.987Z,49.80
2022-08-09T23:20:08.256Z,49.70
2022-08-09T23:22:06.254Z,49.70
2022-08-09T23:24:07.351Z,49.70
2022-08-09T23:26:06.478Z,49.60
2022-08-09T23:28:15.083Z,49.50
2022-08-09T23:30:07.669Z,49.60
2022-08-09T23:32:06.873Z,50.10
2022-08-09T23:34:07.007Z,50.20
2022-08-09T23:36:07.638Z,50.40
2022-08-09T23:38:07.324Z,50.42
2022-08-09T23:40:07.406Z,50.42
2022-08-09T23:42:07.678Z,50.72
2022-08-09T23:44:07.596Z,51.12
2022-08-09T23:46:07.706Z,52.84
2022-08-09T23:48:09.048Z,51.75
2022-08-09T23:50:07.970Z,51.25
2022-08-09T23:52:08.087Z,51.45
2022-08-09T23:54:08.162Z,51.17
2022-08-09T23:56:08.266Z,51.27
2022-08-09T23:58:24.238Z,51.64
